Time;durP1;ratioP1;P1;durP2;ratioP2;P2;SDS_P1;SDS_P2;PMS_P1;PMS_P2;Temp;Humidity;BMP_temperature;BMP_pressure;BME280_temperature;BME280_humidity;BME280_pressure;Samples;Min_cycle;Max_cycle;Signal;HPM_P1;HPM_P2
2021/01/02 00:02:03;;;;;;;;;;;;;;;;;;5095050;28;20006;-69
2021/01/02 00:04:28;;;;;;;;;;;;;;;;;;5095420;28;20428;-69
2021/01/02 00:06:54;;;;;;;;;;;;;;;;;;5084636;28;19908;-70
2021/01/02 00:09:20;;;;;;;;;;;;;;;;;;5075450;28;19947;-69
2021/01/02 00:11:46;;;;;;;;;;;;;;;;;;5086561;28;20439;-70
2021/01/02 00:14:12;;;;;;;;;;;;;;;;;;5095286;28;19908;-70
2021/01/02 00:16:38;;;;;;;;;;;;;;;;;;5095317;28;20003;-69
2021/01/02 00:19:04;;;;;;;;;;;;;;;;;;5095140;28;20362;-69
2021/01/02 00:21:30;;;;;;;;;;;;;;;;;;5095488;28;19908;-69
2021/01/02 00:23:56;;;;;;;;;;;;;;;;;;5096095;28;19915;-69
2021/01/02 00:26:22;;;;;;;;;;;;;;;;;;5097519;28;19908;-70
2021/01/02 00:28:48;;;;;;;;;;;;;;;;;;5096036;28;19916;-69
2021/01/02 00:31:13;;;;;;;;;;;;;;;;;;5094424;28;20375;-69
2021/01/02 00:33:39;;;;;;;;;;;;;;;;;;5094677;28;20425;-70
2021/01/02 00:36:05;;;;;;;;;;;;;;;;;;5095344;28;19915;-70
2021/01/02 00:38:31;;;;;;;;;;;;;;;;;;5090832;28;19908;-70
2021/01/02 00:40:57;;;;;;;;;;;;;;;;;;5081292;28;20003;-70
2021/01/02 00:43:23;;;;;;;;;;;;;;;;;;5092788;28;19912;-70
2021/01/02 00:45:49;;;;;;;;;;;;;;;;;;5093351;28;19904;-69
2021/01/02 00:48:15;;;;;;;;;;;;;;;;;;5094012;28;19904;-70
2021/01/02 00:50:41;;;;;;;;;;;;;;;;;;5093742;28;19908;-69
2021/01/02 00:53:07;;;;;;;;;;;;;;;;;;5093673;28;19967;-69
2021/01/02 00:55:33;;;;;;;;;;;;;;;;;;5093349;28;20007;-71
2021/01/02 00:57:58;;;;;;;;;;;;;;;;;;5093467;28;20406;-70
2021/01/02 01:00:24;;;;;;;;;;;;;;;;;;5094116;28;20002;-71
2021/01/02 01:02:50;;;;;;;;;;;;;;;;;;5093944;28;20007;-71
2021/01/02 01:05:16;;;;;;;;;;;;;;;;;;5093981;28;20475;-71
2021/01/02 01:07:42;;;;;;;;;;;;;;;;;;5093446;28;19933;-71
2021/01/02 01:10:08;;;;;;;;;;;;;;;;;;5083570;28;20065;-72
2021/01/02 01:12:34;;;;;;;;;;;;;;;;;;5085236;28;20700;-71
2021/01/02 01:15:00;;;;;;;;;;;;;;;;;;5093615;28;19969;-69
2021/01/02 01:17:26;;;;;;;;;;;;;;;;;;5082612;28;20004;-69
2021/01/02 01:19:51;;;;;;;;;;;;;;;;;;5085503;28;20057;-69
2021/01/02 01:22:17;;;;;;;;;;;;;;;;;;5092907;22;19931;-69
2021/01/02 01:24:43;;;;;;;;;;;;;;;;;;5063742;28;19944;-68
2021/01/02 01:27:09;;;;;;;;;;;;;;;;;;5060932;28;20000;-69
2021/01/02 01:29:35;;;;;;;;;;;;;;;;;;5054166;28;20372;-70
2021/01/02 01:32:01;;;;;;;;;;;;;;;;;;5072108;28;20087;-69
2021/01/02 01:34:27;;;;;;;;;;;;;;;;;;5072402;28;19915;-70
2021/01/02 01:36:53;;;;;;;;;;;;;;;;;;5071779;28;20359;-69
2021/01/02 01:39:19;;;;;;;;;;;;;;;;;;5071810;28;20379;-69
2021/01/02 01:41:45;;;;;;;;;;;;;;;;;;5064345;28;20374;-70
2021/01/02 01:44:12;;;;;;;;;;;;;;;;;;5061771;28;20010;-70
2021/01/02 01:46:38;;;;;;;;;;;;;;;;;;5071878;28;19908;-70
2021/01/02 01:49:05;;;;;;;;;;;;;;;;;;5071707;28;19909;-70
2021/01/02 01:51:31;;;;;;;;;;;;;;;;;;5071391;28;19944;-69
2021/01/02 01:53:56;;;;;;;;;;;;;;;;;;5071858;28;20337;-70
2021/01/02 01:56:22;;;;;;;;;;;;;;;;;;5071861;28;19904;-69
2021/01/02 01:58:48;;;;;;;;;;;;;;;;;;5071177;28;19908;-70
2021/01/02 02:01:14;;;;;;;;;;;;;;;;;;5071060;28;19958;-70
2021/01/02 02:03:40;;;;;;;;;;;;;;;;;;5071821;28;20416;-71
2021/01/02 02:06:06;;;;;;;;;;;;;;;;;;5071789;28;20003;-70
2021/01/02 02:08:32;;;;;;;;;;;;;;;;;;5063011;28;19995;-70
2021/01/02 02:10:58;;;;;;;;;;;;;;;;;;5063064;28;20416;-71
2021/01/02 02:13:24;;;;;;;;;;;;;;;;;;5041880;28;19909;-70
2021/01/02 02:15:50;;;;;;;;;;;;;;;;;;5066629;28;19912;-70
2021/01/02 02:18:15;;;;;;;;;;;;;;;;;;5071202;28;20324;-70
2021/01/02 02:20:41;;;;;;;;;;;;;;;;;;5071362;28;19963;-70
2021/01/02 02:23:07;;;;;;;;;;;;;;;;;;5071109;28;20362;-70
2021/01/02 02:25:33;;;;;;;;;;;;;;;;;;5071311;28;19904;-70
2021/01/02 02:27:59;;;;;;;;;;;;;;;;;;5070624;28;20352;-70
2021/01/02 02:30:25;;;;;;;;;;;;;;;;;;5053456;28;20002;-70
2021/01/02 02:32:51;;;;;;;;;;;;;;;;;;5071276;28;20002;-70
2021/01/02 02:35:17;;;;;;;;;;;;;;;;;;5071426;28;19908;-71
2021/01/02 02:37:43;;;;;;;;;;;;;;;;;;5061365;28;19921;-70
2021/01/02 02:40:09;;;;;;;;;;;;;;;;;;5069240;28;19909;-70
2021/01/02 02:42:36;;;;;;;;;;;;;;;;;;5070934;28;19909;-70
2021/01/02 02:45:02;;;;;;;;;;;;;;;;;;5053331;28;19966;-70
2021/01/02 02:47:28;;;;;;;;;;;;;;;;;;5070911;28;19912;-70
2021/01/02 02:49:53;;;;;;;;;;;;;;;;;;5071089;28;19944;-70
2021/01/02 02:52:20;;;;;;;;;;;;;;;;;;5070617;28;19944;-70
2021/01/02 02:54:45;;;;;;;;;;;;;;;;;;5071072;28;19908;-70
2021/01/02 02:57:11;;;;;;;;;;;;;;;;;;5070960;28;19908;-70
2021/01/02 02:59:37;;;;;;;;;;;;;;;;;;5070605;28;19908;-70
2021/01/02 03:02:03;;;;;;;;;;;;;;;;;;5071049;28;20303;-70
2021/01/02 03:04:29;;;;;;;;;;;;;;;;;;5056896;28;20284;-70
2021/01/02 03:06:55;;;;;;;;;;;;;;;;;;5072744;28;19955;-70
2021/01/02 03:09:21;;;;;;;;;;;;;;;;;;5065993;28;19999;-70
2021/01/02 03:11:47;;;;;;;;;;;;;;;;;;5074575;28;20023;-70
2021/01/02 03:14:13;;;;;;;;;;;;;;;;;;5056938;28;19952;-70
2021/01/02 03:16:39;;;;;;;;;;;;;;;;;;5065848;28;19940;-70
2021/01/02 03:19:05;;;;;;;;;;;;;;;;;;5054177;28;19966;-70
2021/01/02 03:21:31;;;;;;;;;;;;;;;;;;5074610;28;19909;-70
2021/01/02 03:23:58;;;;;;;;;;;;;;;;;;5074885;28;19920;-70
2021/01/02 03:26:24;;;;;;;;;;;;;;;;;;5057077;28;19915;-70
2021/01/02 03:28:50;;;;;;;;;;;;;;;;;;5074617;28;19912;-70
2021/01/02 03:31:16;;;;;;;;;;;;;;;;;;5056063;28;19991;-68
2021/01/02 03:33:41;;;;;;;;;;;;;;;;;;5056217;28;19967;-70
2021/01/02 03:36:07;;;;;;;;;;;;;;;;;;5056538;28;19997;-70
2021/01/02 03:38:33;;;;;;;;;;;;;;;;;;5074260;28;20008;-70
2021/01/02 03:40:59;;;;;;;;;;;;;;;;;;5057511;28;19947;-69
2021/01/02 03:43:25;;;;;;;;;;;;;;;;;;5058295;28;19908;-70
2021/01/02 03:45:51;;;;;;;;;;;;;;;;;;5074070;28;19914;-69
2021/01/02 03:48:17;;;;;;;;;;;;;;;;;;5049366;28;19912;-70
2021/01/02 03:50:43;;;;;;;;;;;;;;;;;;5068767;28;19913;-70
2021/01/02 03:53:09;;;;;;;;;;;;;;;;;;5064521;28;19952;-70
2021/01/02 03:55:35;;;;;;;;;;;;;;;;;;5074767;28;19913;-70
2021/01/02 03:58:01;;;;;;;;;;;;;;;;;;5074920;28;19912;-70
2021/01/02 04:00:27;;;;;;;;;;;;;;;;;;5056581;28;19909;-69
2021/01/02 04:02:52;;;;;;;;;;;;;;;;;;5061389;28;19919;-69
2021/01/02 04:05:18;;;;;;;;;;;;;;;;;;5063136;28;20484;-69
2021/01/02 04:07:44;;;;;;;;;;;;;;;;;;5062349;28;19913;-70
2021/01/02 04:10:10;;;;;;;;;;;;;;;;;;5063767;28;19912;-70
2021/01/02 04:12:36;;;;;;;;;;;;;;;;;;5069438;28;19948;-69
2021/01/02 04:15:02;;;;;;;;;;;;;;;;;;5052218;28;19909;-70
2021/01/02 04:17:28;;;;;;;;;;;;;;;;;;5053540;28;19908;-69
2021/01/02 04:19:54;;;;;;;;;;;;;;;;;;5053782;28;19943;-69
2021/01/02 04:22:20;;;;;;;;;;;;;;;;;;5053243;28;19917;-69
2021/01/02 04:24:46;;;;;;;;;;;;;;;;;;5053737;28;19909;-69
2021/01/02 04:27:12;;;;;;;;;;;;;;;;;;5053413;28;20050;-69
2021/01/02 04:29:37;;;;;;;;;;;;;;;;;;5053819;28;20435;-69
2021/01/02 04:32:03;;;;;;;;;;;;;;;;;;5052186;28;19999;-69
2021/01/02 04:34:29;;;;;;;;;;;;;;;;;;5053598;28;19947;-69
2021/01/02 04:36:55;;;;;;;;;;;;;;;;;;5053337;28;19956;-70
2021/01/02 04:39:21;;;;;;;;;;;;;;;;;;5053183;28;19909;-70
2021/01/02 04:41:47;;;;;;;;;;;;;;;;;;5055208;28;20790;-69
2021/01/02 04:44:13;;;;;;;;;;;;;;;;;;5044855;28;19987;-70
2021/01/02 04:46:39;;;;;;;;;;;;;;;;;;5073193;28;19954;-69
2021/01/02 04:49:05;;;;;;;;;;;;;;;;;;5054995;28;19963;-70
2021/01/02 04:51:31;;;;;;;;;;;;;;;;;;5072961;28;19955;-69
2021/01/02 04:53:57;;;;;;;;;;;;;;;;;;5072915;28;19908;-70
2021/01/02 04:56:23;;;;;;;;;;;;;;;;;;5054870;28;19915;-70
2021/01/02 04:58:48;;;;;;;;;;;;;;;;;;5072330;28;19904;-69
2021/01/02 05:01:14;;;;;;;;;;;;;;;;;;5054138;28;19948;-70
2021/01/02 05:03:40;;;;;;;;;;;;;;;;;;5072689;28;20412;-69
2021/01/02 05:06:06;;;;;;;;;;;;;;;;;;5054952;28;19962;-70
2021/01/02 05:08:32;;;;;;;;;;;;;;;;;;5072422;28;20322;-70
2021/01/02 05:10:58;;;;;;;;;;;;;;;;;;5054495;28;19909;-70
2021/01/02 05:13:24;;;;;;;;;;;;;;;;;;5046293;28;19915;-70
2021/01/02 05:15:50;;;;;;;;;;;;;;;;;;5043578;28;19909;-69
2021/01/02 05:18:16;;;;;;;;;;;;;;;;;;5071022;28;19943;-69
2021/01/02 05:20:42;;;;;;;;;;;;;;;;;;5072306;28;20364;-70
2021/01/02 05:23:08;;;;;;;;;;;;;;;;;;5054131;28;19961;-70
2021/01/02 05:25:34;;;;;;;;;;;;;;;;;;5053491;28;19944;-69
2021/01/02 05:27:59;;;;;;;;;;;;;;;;;;5072071;28;20397;-70
2021/01/02 05:30:26;;;;;;;;;;;;;;;;;;5072042;28;19908;-70
2021/01/02 05:32:51;;;;;;;;;;;;;;;;;;5072024;28;19912;-69
2021/01/02 05:35:17;;;;;;;;;;;;;;;;;;5072102;28;20647;-70
2021/01/02 05:37:43;;;;;;;;;;;;;;;;;;5071650;28;19948;-69
2021/01/02 05:40:09;;;;;;;;;;;;;;;;;;5072141;28;19991;-69
2021/01/02 05:42:35;;;;;;;;;;;;;;;;;;5066290;28;20004;-69
2021/01/02 05:45:01;;;;;;;;;;;;;;;;;;5060130;28;19991;-70
2021/01/02 05:47:27;;;;;;;;;;;;;;;;;;5071653;28;19915;-69
2021/01/02 05:49:53;;;;;;;;;;;;;;;;;;5071813;28;19931;-69
2021/01/02 05:52:19;;;;;;;;;;;;;;;;;;5053776;28;19919;-70
2021/01/02 05:54:44;;;;;;;;;;;;;;;;;;5071575;28;19977;-70
2021/01/02 05:57:10;;;;;;;;;;;;;;;;;;5071892;28;19977;-70
2021/01/02 05:59:36;;;;;;;;;;;;;;;;;;5053451;28;19909;-69
2021/01/02 06:02:02;;;;;;;;;;;;;;;;;;5071805;28;19912;-69
2021/01/02 06:04:28;;;;;;;;;;;;;;;;;;5071712;28;20279;-69
2021/01/02 06:06:54;;;;;;;;;;;;;;;;;;5068861;28;19913;-69
2021/01/02 06:09:20;;;;;;;;;;;;;;;;;;5044764;28;19909;-69
2021/01/02 06:11:46;;;;;;;;;;;;;;;;;;5071441;28;19913;-71
2021/01/02 06:14:12;;;;;;;;;;;;;;;;;;5071412;28;20581;-70
2021/01/02 06:16:38;;;;;;;;;;;;;;;;;;5071700;28;19940;-70
2021/01/02 06:19:03;;;;;;;;;;;;;;;;;;5053452;28;19952;-71
2021/01/02 06:21:29;;;;;;;;;;;;;;;;;;5062220;28;20340;-70
2021/01/02 06:23:55;;;;;;;;;;;;;;;;;;5059437;28;20305;-71
2021/01/02 06:26:21;;;;;;;;;;;;;;;;;;5053477;28;19956;-71
2021/01/02 06:28:47;;;;;;;;;;;;;;;;;;5053189;28;19909;-70
2021/01/02 06:31:13;;;;;;;;;;;;;;;;;;5071267;28;19909;-71
2021/01/02 06:33:39;;;;;;;;;;;;;;;;;;5071195;28;19932;-71
2021/01/02 06:36:05;;;;;;;;;;;;;;;;;;5070415;28;20368;-70
2021/01/02 06:38:31;;;;;;;;;;;;;;;;;;5057502;28;19948;-70
2021/01/02 06:40:57;;;;;;;;;;;;;;;;;;5044231;28;19970;-71
2021/01/02 06:43:23;;;;;;;;;;;;;;;;;;5039676;28;19959;-71
2021/01/02 06:45:49;;;;;;;;;;;;;;;;;;5041021;28;20442;-70
2021/01/02 06:48:15;;;;;;;;;;;;;;;;;;5038488;28;20320;-71
2021/01/02 06:50:41;;;;;;;;;;;;;;;;;;5047769;28;19913;-71
2021/01/02 06:53:07;;;;;;;;;;;;;;;;;;5031948;28;20342;-70
2021/01/02 06:55:33;;;;;;;;;;;;;;;;;;5037207;28;19919;-71
2021/01/02 06:57:59;;;;;;;;;;;;;;;;;;5040026;28;19987;-71
2021/01/02 07:00:26;;;;;;;;;;;;;;;;;;5022352;28;20046;-70
2021/01/02 07:02:51;;;;;;;;;;;;;;;;;;5041509;28;19916;-72
2021/01/02 07:05:17;;;;;;;;;;;;;;;;;;5039879;28;19991;-71
2021/01/02 07:07:43;;;;;;;;;;;;;;;;;;5040987;28;19909;-71
2021/01/02 07:10:09;;;;;;;;;;;;;;;;;;5049460;28;19948;-68
2021/01/02 07:12:35;;;;;;;;;;;;;;;;;;5045822;28;20014;-70
2021/01/02 07:15:01;;;;;;;;;;;;;;;;;;5047312;28;20438;-71
2021/01/02 07:17:27;;;;;;;;;;;;;;;;;;5041734;28;19927;-69
2021/01/02 07:19:53;;;;;;;;;;;;;;;;;;5046732;28;19917;-71
2021/01/02 07:22:20;;;;;;;;;;;;;;;;;;5022511;28;19917;-69
2021/01/02 07:27:30;;;;;;;;;;;;;;;;;;5057279;28;19975;-68
2021/01/02 07:29:56;;;;;;;;;;;;;;;;;;5058501;28;19909;-71
2021/01/02 07:32:21;;;;;;;;;;;;;;;;;;5044749;28;20407;-69
2021/01/02 07:34:47;;;;;;;;;;;;;;;;;;5041534;28;19956;-71
2021/01/02 07:37:13;;;;;;;;;;;;;;;;;;5064091;28;19948;-69
2021/01/02 07:39:39;;;;;;;;;;;;;;;;;;5077899;28;19956;-70
2021/01/02 07:42:05;;;;;;;;;;;;;;;;;;5051013;28;19967;-69
2021/01/02 07:44:31;;;;;;;;;;;;;;;;;;5040876;28;19909;-72
2021/01/02 07:46:57;;;;;;;;;;;;;;;;;;5051124;28;19944;-71
2021/01/02 07:49:23;;;;;;;;;;;;;;;;;;5052452;28;19912;-71
2021/01/02 07:51:49;;;;;;;;;;;;;;;;;;5054109;28;19975;-72
2021/01/02 07:54:15;;;;;;;;;;;;;;;;;;5054447;28;19909;-71
2021/01/02 07:56:41;;;;;;;;;;;;;;;;;;5054523;28;20444;-72
2021/01/02 07:59:07;;;;;;;;;;;;;;;;;;5069475;28;20262;-71
2021/01/02 08:01:33;;;;;;;;;;;;;;;;;;5069642;28;19916;-71
2021/01/02 08:03:58;;;;;;;;;;;;;;;;;;5069927;28;19955;-69
2021/01/02 08:06:24;;;;;;;;;;;;;;;;;;5053680;28;19951;-71
2021/01/02 08:08:50;;;;;;;;;;;;;;;;;;5059097;28;19909;-70
2021/01/02 08:11:16;;;;;;;;;;;;;;;;;;5055975;28;19909;-71
2021/01/02 08:13:42;;;;;;;;;;;;;;;;;;5039505;28;20343;-71
2021/01/02 08:16:08;;;;;;;;;;;;;;;;;;5038811;28;19963;-70
2021/01/02 08:18:34;;;;;;;;;;;;;;;;;;5055211;28;19984;-71
2021/01/02 08:21:00;;;;;;;;;;;;;;;;;;5038203;28;19908;-70
2021/01/02 08:23:26;;;;;;;;;;;;;;;;;;5056566;28;19963;-71
2021/01/02 08:25:52;;;;;;;;;;;;;;;;;;5038920;28;19921;-71
2021/01/02 08:28:18;;;;;;;;;;;;;;;;;;5056978;28;19916;-71
2021/01/02 08:30:44;;;;;;;;;;;;;;;;;;5058514;28;20320;-70
2021/01/02 08:33:10;;;;;;;;;;;;;;;;;;5055992;28;19913;-71
2021/01/02 08:35:36;;;;;;;;;;;;;;;;;;5056272;28;20007;-71
2021/01/02 08:38:02;;;;;;;;;;;;;;;;;;5052612;28;19952;-70
2021/01/02 08:40:27;;;;;;;;;;;;;;;;;;5062300;28;20321;-71
2021/01/02 08:42:53;;;;;;;;;;;;;;;;;;5056047;28;19913;-70
2021/01/02 08:45:19;;;;;;;;;;;;;;;;;;5056757;28;19908;-71
2021/01/02 08:47:45;;;;;;;;;;;;;;;;;;5056841;28;19912;-70
2021/01/02 08:50:11;;;;;;;;;;;;;;;;;;5057628;28;19909;-68
2021/01/02 08:52:37;;;;;;;;;;;;;;;;;;5054960;28;20259;-69
2021/01/02 08:55:03;;;;;;;;;;;;;;;;;;5056049;28;19927;-69
2021/01/02 08:57:29;;;;;;;;;;;;;;;;;;5055949;28;19976;-68
2021/01/02 08:59:55;;;;;;;;;;;;;;;;;;5036536;28;20008;-69
2021/01/02 09:02:21;;;;;;;;;;;;;;;;;;5054119;28;19909;-68
2021/01/02 09:04:47;;;;;;;;;;;;;;;;;;5035278;28;19909;-71
2021/01/02 09:07:12;;;;;;;;;;;;;;;;;;5048282;28;19939;-71
2021/01/02 09:09:38;;;;;;;;;;;;;;;;;;5078978;28;20003;-70
2021/01/02 09:12:04;;;;;;;;;;;;;;;;;;5064728;28;19991;-70
2021/01/02 09:14:30;;;;;;;;;;;;;;;;;;5052313;28;19997;-71
2021/01/02 09:16:56;;;;;;;;;;;;;;;;;;5052818;28;19928;-70
2021/01/02 09:19:22;;;;;;;;;;;;;;;;;;5052358;28;20351;-70
2021/01/02 09:21:48;;;;;;;;;;;;;;;;;;5052257;28;19924;-70
2021/01/02 09:24:14;;;;;;;;;;;;;;;;;;5051421;28;20305;-69
2021/01/02 09:26:40;;;;;;;;;;;;;;;;;;5052375;28;19917;-71
2021/01/02 09:29:06;;;;;;;;;;;;;;;;;;5051541;28;19909;-71
2021/01/02 09:31:32;;;;;;;;;;;;;;;;;;5051691;28;20292;-70
2021/01/02 09:33:58;;;;;;;;;;;;;;;;;;5051330;28;19998;-71
2021/01/02 09:36:25;;;;;;;;;;;;;;;;;;5050207;28;19912;-70
2021/01/02 09:38:51;;;;;;;;;;;;;;;;;;5065726;28;19909;-70
2021/01/02 09:41:16;;;;;;;;;;;;;;;;;;5060720;28;19934;-70
2021/01/02 09:43:42;;;;;;;;;;;;;;;;;;5070158;28;19948;-70
2021/01/02 09:46:12;;;;;;;;;;;;;;;;;;5070510;28;19958;-70
2021/01/02 09:48:38;;;;;;;;;;;;;;;;;;5064588;28;19909;-70
2021/01/02 09:51:04;;;;;;;;;;;;;;;;;;5062900;28;19990;-70
2021/01/02 09:53:30;;;;;;;;;;;;;;;;;;5071642;28;20279;-71
2021/01/02 09:55:56;;;;;;;;;;;;;;;;;;5071782;28;20011;-69
2021/01/02 09:58:22;;;;;;;;;;;;;;;;;;5086960;28;20039;-69
2021/01/02 10:00:48;;;;;;;;;;;;;;;;;;5071716;28;19930;-70
2021/01/02 10:03:14;;;;;;;;;;;;;;;;;;5070651;28;20579;-70
2021/01/02 10:05:40;;;;;;;;;;;;;;;;;;5085840;28;19909;-69
2021/01/02 10:08:06;;;;;;;;;;;;;;;;;;5050670;28;20372;-70
2021/01/02 10:10:31;;;;;;;;;;;;;;;;;;5071124;28;19915;-70
2021/01/02 10:12:57;;;;;;;;;;;;;;;;;;5071237;28;20065;-70
2021/01/02 10:15:23;;;;;;;;;;;;;;;;;;5086749;28;20380;-70
2021/01/02 10:17:49;;;;;;;;;;;;;;;;;;5070944;28;19909;-70
2021/01/02 10:20:15;;;;;;;;;;;;;;;;;;5071542;28;19912;-70
2021/01/02 10:22:41;;;;;;;;;;;;;;;;;;5070201;28;19908;-69
2021/01/02 10:25:07;;;;;;;;;;;;;;;;;;5086647;28;19931;-70
2021/01/02 10:27:33;;;;;;;;;;;;;;;;;;5064331;28;20005;-69
2021/01/02 10:29:59;;;;;;;;;;;;;;;;;;5051176;28;19909;-70
2021/01/02 10:32:25;;;;;;;;;;;;;;;;;;5031167;28;19967;-70
2021/01/02 10:34:51;;;;;;;;;;;;;;;;;;5013640;28;20484;-71
2021/01/02 10:37:17;;;;;;;;;;;;;;;;;;5036850;28;19971;-69
2021/01/02 10:39:42;;;;;;;;;;;;;;;;;;5057944;28;19913;-70
2021/01/02 10:42:08;;;;;;;;;;;;;;;;;;5060659;28;20394;-69
2021/01/02 10:44:34;;;;;;;;;;;;;;;;;;5071421;28;19931;-70
2021/01/02 10:47:00;;;;;;;;;;;;;;;;;;5070898;28;20009;-71
2021/01/02 10:49:26;;;;;;;;;;;;;;;;;;5070635;28;19962;-70
2021/01/02 10:51:52;;;;;;;;;;;;;;;;;;5070919;28;20058;-69
2021/01/02 10:54:18;;;;;;;;;;;;;;;;;;5070933;28;20003;-69
2021/01/02 10:56:44;;;;;;;;;;;;;;;;;;5070516;28;19915;-70
2021/01/02 10:59:10;;;;;;;;;;;;;;;;;;5070725;28;19969;-70
2021/01/02 11:01:36;;;;;;;;;;;;;;;;;;5070703;28;20515;-70
2021/01/02 11:04:02;;;;;;;;;;;;;;;;;;5080345;28;19966;-69
2021/01/02 11:06:28;;;;;;;;;;;;;;;;;;5065197;28;19983;-71
2021/01/02 11:08:54;;;;;;;;;;;;;;;;;;5050912;28;19916;-71
2021/01/02 11:11:20;;;;;;;;;;;;;;;;;;5058746;28;19909;-70
2021/01/02 11:13:46;;;;;;;;;;;;;;;;;;5059147;28;20343;-71
2021/01/02 11:16:12;;;;;;;;;;;;;;;;;;5062302;28;19912;-69
2021/01/02 11:18:37;;;;;;;;;;;;;;;;;;5069827;28;19912;-71
2021/01/02 11:21:03;;;;;;;;;;;;;;;;;;5070270;28;20264;-70
2021/01/02 11:23:29;;;;;;;;;;;;;;;;;;5071311;28;19947;-70
2021/01/02 11:25:55;;;;;;;;;;;;;;;;;;5075076;28;19981;-70
2021/01/02 11:28:21;;;;;;;;;;;;;;;;;;5073548;28;19943;-70
2021/01/02 11:30:47;;;;;;;;;;;;;;;;;;5090214;28;19955;-70
2021/01/02 11:33:13;;;;;;;;;;;;;;;;;;5074196;28;19952;-71
2021/01/02 11:35:39;;;;;;;;;;;;;;;;;;5074559;28;19955;-70
2021/01/02 11:38:05;;;;;;;;;;;;;;;;;;5074151;28;20263;-70
2021/01/02 11:40:31;;;;;;;;;;;;;;;;;;5090158;28;20326;-71
2021/01/02 11:42:58;;;;;;;;;;;;;;;;;;5069348;28;19909;-70
2021/01/02 11:45:24;;;;;;;;;;;;;;;;;;5057872;28;19992;-70
2021/01/02 11:47:53;;;;;;;;;;;;;;;;;;5068900;28;20006;-70
2021/01/02 11:50:19;;;;;;;;;;;;;;;;;;5073964;28;19978;-70
2021/01/02 11:52:45;;;;;;;;;;;;;;;;;;5090184;28;19986;-72
2021/01/02 11:55:11;;;;;;;;;;;;;;;;;;5074055;28;19952;-71
2021/01/02 11:57:37;;;;;;;;;;;;;;;;;;5074039;28;20544;-69
2021/01/02 12:00:03;;;;;;;;;;;;;;;;;;5073946;28;19913;-70
2021/01/02 12:02:29;;;;;;;;;;;;;;;;;;5074143;28;20356;-71
2021/01/02 12:04:55;;;;;;;;;;;;;;;;;;5089650;28;19955;-70
2021/01/02 12:07:21;;;;;;;;;;;;;;;;;;5060415;28;19909;-70
2021/01/02 12:09:47;;;;;;;;;;;;;;;;;;5052901;28;19930;-70
2021/01/02 12:12:13;;;;;;;;;;;;;;;;;;5063299;28;19971;-71
2021/01/02 12:14:39;;;;;;;;;;;;;;;;;;5088808;28;19950;-70
2021/01/02 12:17:05;;;;;;;;;;;;;;;;;;5073746;28;20331;-69
2021/01/02 12:19:31;;;;;;;;;;;;;;;;;;5073888;28;19909;-71
2021/01/02 12:21:56;;;;;;;;;;;;;;;;;;5073750;28;20384;-71
2021/01/02 12:24:22;;;;;;;;;;;;;;;;;;5089636;28;20522;-71
2021/01/02 12:26:48;;;;;;;;;;;;;;;;;;5072620;28;20461;-71
2021/01/02 12:29:14;;;;;;;;;;;;;;;;;;5055083;28;20384;-71
2021/01/02 12:31:40;;;;;;;;;;;;;;;;;;5039377;28;19969;-71
2021/01/02 12:34:06;;;;;;;;;;;;;;;;;;5033846;28;19909;-71
2021/01/02 12:36:32;;;;;;;;;;;;;;;;;;5033585;28;20265;-71
2021/01/02 12:38:58;;;;;;;;;;;;;;;;;;5057220;28;19909;-70
2021/01/02 12:41:24;;;;;;;;;;;;;;;;;;5064951;28;19908;-71
2021/01/02 12:43:50;;;;;;;;;;;;;;;;;;5073263;28;19909;-70
2021/01/02 12:46:17;;;;;;;;;;;;;;;;;;5073656;28;20492;-70
2021/01/02 12:48:42;;;;;;;;;;;;;;;;;;5073094;28;19913;-70
2021/01/02 12:51:08;;;;;;;;;;;;;;;;;;5073135;28;20445;-70
2021/01/02 12:53:34;;;;;;;;;;;;;;;;;;5062313;28;19993;-72
2021/01/02 12:56:00;;;;;;;;;;;;;;;;;;5053231;28;19913;-71
2021/01/02 12:58:26;;;;;;;;;;;;;;;;;;5052516;28;19913;-70
2021/01/02 13:00:52;;;;;;;;;;;;;;;;;;5069103;28;19913;-70
2021/01/02 13:03:18;;;;;;;;;;;;;;;;;;5053491;28;20410;-71
2021/01/02 13:05:44;;;;;;;;;;;;;;;;;;5053007;28;19912;-71
2021/01/02 13:08:10;;;;;;;;;;;;;;;;;;5053833;28;19915;-71
2021/01/02 13:10:36;;;;;;;;;;;;;;;;;;5064071;28;20006;-71
2021/01/02 13:13:02;;;;;;;;;;;;;;;;;;5062618;28;20349;-72
2021/01/02 13:15:28;;;;;;;;;;;;;;;;;;5072876;28;19999;-71
2021/01/02 13:17:54;;;;;;;;;;;;;;;;;;5072280;28;20022;-71
2021/01/02 13:20:19;;;;;;;;;;;;;;;;;;5072760;28;19992;-71
2021/01/02 13:22:45;;;;;;;;;;;;;;;;;;5087810;28;20010;-71
2021/01/02 13:25:11;;;;;;;;;;;;;;;;;;5072571;28;20047;-71
2021/01/02 13:27:37;;;;;;;;;;;;;;;;;;5072273;28;19920;-71
2021/01/02 13:30:03;;;;;;;;;;;;;;;;;;5086050;22;20916;-71
2021/01/02 13:32:29;;;;;;;;;;;;;;;;;;5068373;28;19966;-70
2021/01/02 13:34:57;;;;;;;;;;;;;;;;;;5052115;28;19966;-71
2021/01/02 13:37:23;;;;;;;;;;;;;;;;;;5071924;28;20350;-70
2021/01/02 13:39:49;;;;;;;;;;;;;;;;;;5064675;28;19950;-71
2021/01/02 13:42:14;;;;;;;;;;;;;;;;;;5083588;28;19954;-71
2021/01/02 13:44:40;;;;;;;;;;;;;;;;;;5092351;28;19912;-71
2021/01/02 13:47:07;;;;;;;;;;;;;;;;;;5091473;28;19918;-70
2021/01/02 13:49:33;;;;;;;;;;;;;;;;;;5092139;28;20275;-71
2021/01/02 13:51:59;;;;;;;;;;;;;;;;;;5092148;28;19951;-71
2021/01/02 13:54:25;;;;;;;;;;;;;;;;;;5092065;28;19962;-70
2021/01/02 13:56:51;;;;;;;;;;;;;;;;;;5073940;28;19908;-70
2021/01/02 13:59:17;;;;;;;;;;;;;;;;;;5091850;28;19908;-71
2021/01/02 14:01:43;;;;;;;;;;;;;;;;;;5091519;28;19908;-71
2021/01/02 14:04:09;;;;;;;;;;;;;;;;;;5092117;28;19994;-70
2021/01/02 14:06:35;;;;;;;;;;;;;;;;;;5073879;28;19915;-70
2021/01/02 14:09:01;;;;;;;;;;;;;;;;;;5071389;28;19982;-70
2021/01/02 14:11:26;;;;;;;;;;;;;;;;;;5062599;28;19908;-70
2021/01/02 14:13:52;;;;;;;;;;;;;;;;;;5071758;28;19950;-70
2021/01/02 14:16:18;;;;;;;;;;;;;;;;;;5071381;28;20296;-70
2021/01/02 14:18:44;;;;;;;;;;;;;;;;;;5071140;28;19913;-71
2021/01/02 14:21:10;;;;;;;;;;;;;;;;;;5058714;28;20390;-71
2021/01/02 14:23:36;;;;;;;;;;;;;;;;;;5056592;28;20010;-71
2021/01/02 14:26:02;;;;;;;;;;;;;;;;;;5064904;28;20062;-71
2021/01/02 14:28:28;;;;;;;;;;;;;;;;;;5056472;28;19991;-71
2021/01/02 14:30:54;;;;;;;;;;;;;;;;;;5053103;28;20008;-71
2021/01/02 14:33:20;;;;;;;;;;;;;;;;;;5071138;28;19959;-71
2021/01/02 14:35:46;;;;;;;;;;;;;;;;;;5070993;28;19951;-70
2021/01/02 14:38:12;;;;;;;;;;;;;;;;;;5072074;28;19959;-70
2021/01/02 14:40:37;;;;;;;;;;;;;;;;;;5078928;28;19962;-70
2021/01/02 14:43:03;;;;;;;;;;;;;;;;;;5071202;28;19944;-70
2021/01/02 14:45:29;;;;;;;;;;;;;;;;;;5070214;28;19963;-71
2021/01/02 14:47:55;;;;;;;;;;;;;;;;;;5070196;28;20359;-70
2021/01/02 14:50:21;;;;;;;;;;;;;;;;;;5069926;28;19995;-70
2021/01/02 14:52:47;;;;;;;;;;;;;;;;;;5070588;28;19959;-71
2021/01/02 14:55:13;;;;;;;;;;;;;;;;;;5070723;28;19944;-70
2021/01/02 14:57:39;;;;;;;;;;;;;;;;;;5071457;28;19935;-70
2021/01/02 15:00:05;;;;;;;;;;;;;;;;;;5056738;28;19908;-70
2021/01/02 15:02:31;;;;;;;;;;;;;;;;;;5074883;28;20379;-70
2021/01/02 15:04:56;;;;;;;;;;;;;;;;;;5056930;28;19963;-71
2021/01/02 15:07:22;;;;;;;;;;;;;;;;;;5076998;28;19916;-70
2021/01/02 15:09:48;;;;;;;;;;;;;;;;;;5079499;28;19951;-70
2021/01/02 15:12:14;;;;;;;;;;;;;;;;;;5074876;28;19963;-70
2021/01/02 15:14:40;;;;;;;;;;;;;;;;;;5057009;28;19934;-72
2021/01/02 15:17:06;;;;;;;;;;;;;;;;;;5074907;28;19912;-70
2021/01/02 15:19:32;;;;;;;;;;;;;;;;;;5074417;28;19956;-70
2021/01/02 15:21:58;;;;;;;;;;;;;;;;;;5056778;28;20493;-70
2021/01/02 15:24:24;;;;;;;;;;;;;;;;;;5056137;28;19912;-71
2021/01/02 15:26:50;;;;;;;;;;;;;;;;;;5074602;28;19952;-70
2021/01/02 15:29:16;;;;;;;;;;;;;;;;;;5056377;28;19959;-70
2021/01/02 15:31:42;;;;;;;;;;;;;;;;;;5074133;28;19960;-71
2021/01/02 15:34:08;;;;;;;;;;;;;;;;;;5074389;28;19915;-71
2021/01/02 15:36:34;;;;;;;;;;;;;;;;;;5074366;28;19920;-70
2021/01/02 15:38:59;;;;;;;;;;;;;;;;;;5074878;28;19948;-71
2021/01/02 15:41:25;;;;;;;;;;;;;;;;;;5080882;28;19908;-69
2021/01/02 15:43:51;;;;;;;;;;;;;;;;;;5081254;28;19912;-70
2021/01/02 15:46:17;;;;;;;;;;;;;;;;;;5074184;28;19966;-69
2021/01/02 15:48:43;;;;;;;;;;;;;;;;;;5073866;28;19935;-71
2021/01/02 15:51:09;;;;;;;;;;;;;;;;;;5073982;28;19947;-69
2021/01/02 15:53:35;;;;;;;;;;;;;;;;;;5067262;28;19961;-70
2021/01/02 15:56:01;;;;;;;;;;;;;;;;;;5074151;28;20003;-70
2021/01/02 15:58:27;;;;;;;;;;;;;;;;;;5073782;28;19939;-69
2021/01/02 16:00:53;;;;;;;;;;;;;;;;;;5073759;28;19915;-69
2021/01/02 16:03:19;;;;;;;;;;;;;;;;;;5073489;28;20438;-70
2021/01/02 16:05:44;;;;;;;;;;;;;;;;;;5073752;28;19909;-69
2021/01/02 16:08:11;;;;;;;;;;;;;;;;;;5073218;28;19943;-70
2021/01/02 16:10:36;;;;;;;;;;;;;;;;;;5055128;28;19915;-69
2021/01/02 16:13:02;;;;;;;;;;;;;;;;;;5082146;28;20380;-70
2021/01/02 16:15:28;;;;;;;;;;;;;;;;;;5075121;28;19947;-70
2021/01/02 16:17:54;;;;;;;;;;;;;;;;;;5073393;28;19947;-69
2021/01/02 16:20:20;;;;;;;;;;;;;;;;;;5073118;28;19977;-69
2021/01/02 16:22:46;;;;;;;;;;;;;;;;;;5072814;28;20447;-69
2021/01/02 16:25:12;;;;;;;;;;;;;;;;;;5073385;28;19909;-69
2021/01/02 16:27:38;;;;;;;;;;;;;;;;;;5073208;28;20372;-70
2021/01/02 16:30:04;;;;;;;;;;;;;;;;;;5073428;28;19920;-69
2021/01/02 16:32:30;;;;;;;;;;;;;;;;;;5054682;28;19987;-69
2021/01/02 16:34:56;;;;;;;;;;;;;;;;;;5073019;28;20003;-68
2021/01/02 16:37:22;;;;;;;;;;;;;;;;;;5072803;28;19995;-68
2021/01/02 16:39:48;;;;;;;;;;;;;;;;;;5054699;28;19991;-69